Time;durP1;ratioP1;P1;durP2;ratioP2;P2;SDS_P1;SDS_P2;PMS_P1;PMS_P2;Temp;Humidity;BMP_temperature;BMP_pressure;BME280_temperature;BME280_humidity;BME280_pressure;Samples;Min_cycle;Max_cycle;Signal;HPM_P1;HPM_P2
2023/09/25 00:03:50;;;;;;;6.50;5.70;;;;;;;12.54;100.00;101467.75;180249;1263;45960;-59
2023/09/25 00:07:57;;;;;;;;;;;;;;;12.47;100.00;101470.89;180338;1263;57399;-59
2023/09/25 00:12:05;;;;;;;8.00;6.80;;;;;;;12.44;100.00;101468.80;180226;1264;43578;-59
2023/09/25 00:16:18;;;;;;;9.90;8.70;;;;;;;12.47;100.00;101459.55;180466;1262;45957;-59
2023/09/25 00:20:24;;;;;;;11.10;6.70;;;;;;;12.44;100.00;101463.45;180299;1263;45896;-59
2023/09/25 00:24:27;;;;;;;7.70;6.50;;;;;;;12.47;100.00;101467.70;180165;1263;43539;-59
2023/09/25 00:28:31;;;;;;;7.60;6.70;;;;;;;12.47;100.00;101466.11;180231;1262;57651;-59
2023/09/25 00:32:35;;;;;;;9.30;7.40;;;;;;;12.50;100.00;101469.97;180079;1264;45913;-59
2023/09/25 00:36:39;;;;;;;8.10;7.10;;;;;;;12.55;100.00;101462.99;180301;1262;43661;-59
2023/09/25 00:40:42;;;;;;;7.60;6.50;;;;;;;12.57;100.00;101468.61;180162;1263;45973;-59
2023/09/25 00:44:46;;;;;;;8.10;6.50;;;;;;;12.59;100.00;101467.89;180301;1262;43570;-58
2023/09/25 00:48:49;;;;;;;12.70;8.10;;;;;;;12.62;100.00;101467.85;180369;1262;58388;-59
2023/09/25 00:53:03;;;;;;;13.10;7.60;;;;;;;12.63;100.00;101463.70;180282;1263;43572;-60
2023/09/25 00:57:09;;;;;;;8.20;6.60;;;;;;;12.60;100.00;101462.70;180267;1266;44731;-60
2023/09/25 01:01:13;;;;;;;14.00;7.60;;;;;;;12.56;100.00;101463.52;180294;1261;43575;-60
2023/09/25 01:05:16;;;;;;;9.40;7.20;;;;;;;12.41;100.00;101464.38;180403;1264;45969;-60
2023/09/25 01:09:21;;;;;;;9.60;8.60;;;;;;;12.26;100.00;101465.26;180346;1264;58175;-59
2023/09/25 01:13:25;;;;;;;19.50;7.50;;;;;;;12.21;100.00;101465.05;180350;1263;44167;-60
2023/09/25 01:17:34;;;;;;;9.50;7.70;;;;;;;12.20;100.00;101465.66;180357;1262;43908;-59
2023/09/25 01:21:38;;;;;;;10.50;7.60;;;;;;;12.24;100.00;101465.73;180352;1262;43715;-60
2023/09/25 01:25:47;;;;;;;11.30;8.10;;;;;;;12.30;100.00;101464.96;180672;1260;44691;-59
2023/09/25 01:29:50;;;;;;;9.00;7.50;;;;;;;12.38;100.00;101467.61;180542;1257;58379;-60
2023/09/25 01:33:54;;;;;;;8.90;7.40;;;;;;;12.47;100.00;101464.36;180550;1259;45842;-60
2023/09/25 01:38:04;;;;;;;9.30;8.40;;;;;;;12.54;100.00;101456.86;180633;1260;43767;-60
2023/09/25 01:42:08;;;;;;;8.60;6.20;;;;;;;12.60;100.00;101464.45;180711;1260;43672;-61
2023/09/25 01:46:11;;;;;;;14.00;7.60;;;;;;;12.63;100.00;101464.98;180550;1257;43730;-59
2023/09/25 01:55:36;;;;;;;10.20;7.80;;;;;;;12.74;100.00;101464.73;180581;1259;44941;-60
2023/09/25 01:59:40;;;;;;;12.60;7.70;;;;;;;12.72;100.00;101460.25;180614;1259;44589;-59
2023/09/25 02:04:40;;;;;;;8.20;7.40;;;;;;;12.73;100.00;101460.85;180548;1260;45874;-61
2023/09/25 02:08:44;;;;;;;13.10;8.50;;;;;;;12.77;100.00;101453.33;180545;1260;44775;-60
2023/09/25 02:12:47;;;;;;;13.10;8.60;;;;;;;12.81;100.00;101454.55;180634;1260;58469;-59
2023/09/25 02:16:51;;;;;;;9.30;8.20;;;;;;;12.88;100.00;101448.43;180578;1260;43616;-59
2023/09/25 02:20:55;;;;;;;13.20;8.00;;;;;;;12.95;100.00;101443.79;180567;1260;43575;-60
2023/09/25 02:25:01;;;;;;;8.60;7.60;;;;;;;13.02;100.00;101436.86;180721;1259;43708;-60
2023/09/25 02:29:05;;;;;;;10.40;8.30;;;;;;;12.98;100.00;101432.86;180493;1260;45014;-61
2023/09/25 02:33:35;;;;;;;10.70;7.80;;;;;;;12.81;100.00;101428.94;180653;1258;59009;-59
2023/09/25 02:37:44;;;;;;;10.90;7.00;;;;;;;12.71;100.00;101426.97;180566;1261;43619;-60
2023/09/25 02:41:57;;;;;;;10.30;8.00;;;;;;;12.72;100.00;101423.58;180533;1260;43883;-59
2023/09/25 02:46:00;;;;;;;13.30;7.90;;;;;;;12.70;100.00;101421.38;180548;1259;44883;-59
2023/09/25 02:50:05;;;;;;;12.30;7.00;;;;;;;12.57;100.00;101417.18;180665;1259;43749;-60
2023/09/25 02:54:09;;;;;;;15.70;8.00;;;;;;;12.55;100.00;101412.11;180582;1261;58386;-59
2023/09/25 02:58:12;;;;;;;11.80;8.40;;;;;;;12.57;100.00;101410.38;180491;1260;43517;-59
2023/09/25 03:02:15;;;;;;;13.60;8.90;;;;;;;12.51;100.00;101404.40;180485;1260;45983;-59
2023/09/25 03:06:19;;;;;;;14.90;10.00;;;;;;;12.50;100.00;101404.89;180646;1257;46018;-60
2023/09/25 03:10:23;;;;;;;15.70;9.50;;;;;;;12.54;100.00;101404.59;180437;1260;44966;-60
2023/09/25 03:14:26;;;;;;;11.30;7.80;;;;;;;12.61;100.00;101396.21;180510;1259;58659;-60
2023/09/25 03:18:29;;;;;;;15.50;8.90;;;;;;;12.69;100.00;101392.84;180448;1260;45985;-59
2023/09/25 03:22:35;;;;;;;11.10;8.30;;;;;;;12.71;100.00;101394.60;181505;1251;44567;-60
2023/09/25 03:26:50;;;;;;;12.50;9.30;;;;;;;12.69;100.00;101390.13;181463;1250;43749;-60
2023/09/25 03:30:53;;;;;;;12.40;9.00;;;;;;;12.66;100.00;101388.21;181392;1251;43557;-60
2023/09/25 03:35:00;;;;;;;11.00;8.20;;;;;;;12.62;100.00;101391.76;181192;1253;58992;-60
2023/09/25 03:39:04;;;;;;;15.40;9.40;;;;;;;12.61;100.00;101389.33;181450;1255;45069;-60
2023/09/25 03:43:08;;;;;;;11.10;8.40;;;;;;;12.59;100.00;101388.56;181471;1251;43643;-60
2023/09/25 03:47:11;;;;;;;11.30;8.30;;;;;;;12.64;100.00;101389.27;181391;1251;43738;-61
2023/09/25 03:51:14;;;;;;;12.70;7.90;;;;;;;12.68;100.00;101384.13;181520;1253;44898;-59
2023/09/25 03:55:19;;;;;;;9.70;7.60;;;;;;;12.72;100.00;101390.60;181614;1251;58421;-60
2023/09/25 04:00:17;;;;;;;10.30;9.20;;;;;;;12.86;100.00;101395.19;181577;1250;45890;-60
2023/09/25 04:04:22;;;;;;;11.40;9.60;;;;;;;13.00;100.00;101396.25;181378;1251;45954;-60
2023/09/25 04:08:40;;;;;;;16.50;9.40;;;;;;;13.08;100.00;101394.23;181508;1252;46130;-60
2023/09/25 04:12:44;;;;;;;10.80;9.00;;;;;;;12.96;100.00;101387.27;181539;1251;45208;-60
2023/09/25 04:16:57;;;;;;;12.20;7.80;;;;;;;12.83;100.00;101387.85;181534;1251;58368;-59
2023/09/25 04:21:02;;;;;;;11.70;9.80;;;;;;;12.77;100.00;101386.77;181390;1251;44778;-60
2023/09/25 04:25:08;;;;;;;8.70;7.20;;;;;;;12.79;100.00;101386.42;181361;1251;44723;-59
2023/09/25 04:29:41;;;;;;;11.60;8.40;;;;;;;12.87;100.00;101386.55;181494;1251;45943;-60
2023/09/25 04:33:47;;;;;;;9.80;8.00;;;;;;;12.95;100.00;101391.11;181508;1251;46049;-62
2023/09/25 04:37:56;;;;;;;9.10;7.50;;;;;;;13.04;100.00;101386.33;181416;1255;59351;-60
2023/09/25 04:41:59;;;;;;;10.20;7.40;;;;;;;13.09;100.00;101383.69;181485;1253;45996;-60
2023/09/25 04:46:10;;;;;;;10.30;8.60;;;;;;;13.12;100.00;101386.61;181484;1251;45490;-59
2023/09/25 04:50:15;;;;;;;12.00;8.80;;;;;;;13.03;100.00;101381.60;181512;1250;43803;-59
2023/09/25 04:54:19;;;;;;;13.90;8.90;;;;;;;13.00;100.00;101380.95;181489;1254;44481;-60
2023/09/25 04:58:23;;;;;;;11.40;8.20;;;;;;;13.03;100.00;101379.99;181564;1251;57125;-62
2023/09/25 05:02:27;;;;;;;9.80;8.40;;;;;;;13.03;100.00;101381.23;181519;1251;44998;-60
2023/09/25 05:06:33;;;;;;;15.00;9.00;;;;;;;12.98;100.00;101385.33;181520;1251;45950;-63
2023/09/25 05:10:37;;;;;;;10.30;8.20;;;;;;;12.98;100.00;101389.80;181623;1251;46022;-60
2023/09/25 05:14:55;;;;;;;10.10;9.00;;;;;;;13.03;100.00;101389.41;181656;1251;46027;-61
2023/09/25 05:18:59;;;;;;;11.10;9.60;;;;;;;13.14;100.00;101385.73;181538;1253;58376;-60
2023/09/25 05:23:33;;;;;;;11.70;10.20;;;;;;;13.24;100.00;101382.34;181533;1251;43566;-60
2023/09/25 05:27:39;;;;;;;10.10;8.70;;;;;;;13.31;100.00;101379.70;181509;1254;45983;-61
2023/09/25 05:31:45;;;;;;;11.20;9.70;;;;;;;13.46;100.00;101379.83;181494;1251;45944;-60
2023/09/25 05:35:49;;;;;;;11.60;9.40;;;;;;;13.61;100.00;101377.96;181651;1251;44448;-59
2023/09/25 05:39:57;;;;;;;10.00;8.90;;;;;;;13.69;100.00;101381.50;181658;1251;58193;-60
2023/09/25 05:44:00;;;;;;;17.10;12.90;;;;;;;13.69;100.00;101381.61;181580;1253;43663;-60
2023/09/25 05:48:04;;;;;;;11.00;9.60;;;;;;;13.76;100.00;101383.45;181684;1251;44015;-61
2023/09/25 05:52:11;;;;;;;11.30;10.20;;;;;;;13.81;100.00;101391.77;181604;1251;43572;-59
2023/09/25 05:56:14;;;;;;;11.20;9.60;;;;;;;13.86;100.00;101387.98;181584;1251;43909;-60
2023/09/25 06:00:19;;;;;;;12.10;9.40;;;;;;;14.01;100.00;101391.32;181504;1251;58743;-62
2023/09/25 06:04:24;;;;;;;11.90;9.30;;;;;;;14.03;100.00;101395.11;181635;1251;43439;-60
2023/09/25 06:08:28;;;;;;;11.70;10.60;;;;;;;14.07;100.00;101392.42;181615;1251;43882;-60
2023/09/25 06:12:32;;;;;;;11.60;10.40;;;;;;;14.11;100.00;101384.42;181563;1251;46097;-60
2023/09/25 06:16:36;;;;;;;12.20;10.30;;;;;;;14.17;100.00;101388.63;181496;1251;43729;-63
2023/09/25 06:20:49;;;;;;;11.50;10.20;;;;;;;14.30;100.00;101392.19;181502;1252;58390;-61
2023/09/25 06:24:53;;;;;;;12.40;10.00;;;;;;;14.46;100.00;101386.69;181676;1251;43754;-60
2023/09/25 06:28:56;;;;;;;10.50;9.40;;;;;;;14.61;100.00;101384.19;181536;1251;45901;-61
2023/09/25 06:32:59;;;;;;;13.00;10.60;;;;;;;14.76;100.00;101376.61;181518;1251;43741;-61
2023/09/25 06:37:03;;;;;;;14.30;9.80;;;;;;;14.95;100.00;101377.05;181422;1254;43492;-61
2023/09/25 06:41:11;;;;;;;14.10;10.30;;;;;;;15.16;100.00;101372.45;181503;1251;58405;-60
2023/09/25 06:45:16;;;;;;;12.60;10.20;;;;;;;15.49;100.00;101371.06;181421;1251;43765;-61
2023/09/25 06:49:51;;;;;;;13.30;9.80;;;;;;;15.88;100.00;101374.02;181533;1251;45891;-61
2023/09/25 06:53:56;;;;;;;12.40;10.50;;;;;;;16.29;100.00;101376.77;181510;1251;43740;-61
2023/09/25 06:58:01;;;;;;;19.80;10.40;;;;;;;16.60;100.00;101375.44;181574;1251;44517;-60
2023/09/25 07:02:07;;;;;;;11.60;10.30;;;;;;;16.83;100.00;101367.29;181465;1251;57840;-60
2023/09/25 07:06:11;;;;;;;11.90;10.30;;;;;;;17.15;100.00;101367.77;181592;1251;43838;-61
2023/09/25 07:10:15;;;;;;;12.00;10.80;;;;;;;17.43;100.00;101369.52;181532;1251;44598;-60
2023/09/25 07:15:16;;;;;;;14.60;12.20;;;;;;;17.47;98.93;101364.27;181583;1251;43594;-60
2023/09/25 07:19:20;;;;;;;12.20;9.60;;;;;;;17.43;99.12;101372.00;181548;1251;43807;-60
2023/09/25 07:23:26;;;;;;;11.00;9.90;;;;;;;17.39;99.87;101369.33;181495;1251;58379;-60
2023/09/25 07:27:32;;;;;;;12.30;10.30;;;;;;;17.56;99.85;101373.54;181343;1251;45385;-59
2023/09/25 07:31:35;;;;;;;14.60;11.90;;;;;;;17.78;99.84;101369.12;181502;1251;45842;-63
2023/09/25 07:35:39;;;;;;;13.80;11.70;;;;;;;18.07;99.04;101371.40;181495;1251;45902;-59
2023/09/25 07:39:42;;;;;;;10.60;9.10;;;;;;;18.27;97.17;101373.78;181513;1252;43594;-60
2023/09/25 07:43:48;;;;;;;11.30;10.10;;;;;;;18.52;97.10;101377.98;181467;1250;57628;-61
2023/09/25 07:48:00;;;;;;;14.40;10.30;;;;;;;18.74;95.13;101379.48;181623;1251;43776;-59
2023/09/25 07:52:15;;;;;;;11.50;10.20;;;;;;;18.87;92.43;101377.05;181487;1251;43647;-59
2023/09/25 07:56:20;;;;;;;13.10;10.90;;;;;;;19.02;91.30;101371.98;181500;1251;43499;-60
2023/09/25 08:00:51;;;;;;;9.00;8.20;;;;;;;19.18;89.33;101378.17;181586;1251;44538;-61
2023/09/25 08:04:56;;;;;;;11.80;9.60;;;;;;;19.10;87.65;101378.73;181572;1251;59233;-60
2023/09/25 08:08:59;;;;;;;23.60;12.20;;;;;;;19.11;89.79;101376.85;181524;1250;44682;-60
2023/09/25 08:13:03;;;;;;;14.80;10.00;;;;;;;19.15;90.46;101377.31;181560;1253;45929;-60
2023/09/25 08:17:08;;;;;;;10.70;9.70;;;;;;;19.24;89.17;101373.65;181475;1251;44666;-61
2023/09/25 08:21:13;;;;;;;12.10;10.00;;;;;;;19.32;88.98;101368.52;181374;1251;43510;-59
2023/09/25 08:25:23;;;;;;;14.20;10.90;;;;;;;19.55;89.03;101369.76;181313;1251;58851;-59
2023/09/25 08:29:27;;;;;;;12.20;10.90;;;;;;;19.79;87.20;101369.80;181383;1251;43988;-60
2023/09/25 08:33:50;;;;;;;13.20;10.50;;;;;;;19.84;85.79;101364.39;180729;1257;43564;-59
2023/09/25 08:37:56;;;;;;;14.60;10.90;;;;;;;19.82;85.02;101363.52;180865;1256;43940;-60
2023/09/25 08:41:59;;;;;;;10.90;8.70;;;;;;;19.83;85.53;101359.66;180579;1257;45029;-61
2023/09/25 08:46:12;;;;;;;9.70;8.80;;;;;;;19.84;86.02;101360.88;180654;1257;57185;-59
2023/09/25 08:50:17;;;;;;;16.70;8.60;;;;;;;19.89;85.68;101354.42;180807;1253;46006;-60
2023/09/25 08:54:21;;;;;;;12.00;9.40;;;;;;;19.82;85.60;101350.91;181479;1255;43799;-59
2023/09/25 08:58:53;;;;;;;10.50;9.20;;;;;;;19.79;85.68;101345.45;181272;1252;44980;-61
2023/09/25 09:02:57;;;;;;;11.90;8.70;;;;;;;19.79;86.25;101341.02;181438;1252;44972;-60
2023/09/25 09:07:05;;;;;;;12.30;8.40;;;;;;;19.85;86.20;101335.52;181429;1252;58722;-60
2023/09/25 09:11:10;;;;;;;10.20;9.10;;;;;;;19.92;86.63;101332.12;181539;1251;45929;-60
2023/09/25 09:15:34;;;;;;;11.80;9.30;;;;;;;19.99;86.52;101327.80;181567;1251;43639;-59
2023/09/25 09:19:46;;;;;;;8.70;7.90;;;;;;;20.07;87.23;101318.70;181376;1252;45854;-59
2023/09/25 09:24:22;;;;;;;9.50;7.60;;;;;;;20.16;86.97;101314.15;181447;1251;45928;-60
2023/09/25 09:28:28;;;;;;;9.70;8.00;;;;;;;20.20;86.05;101317.64;181545;1251;58328;-60
2023/09/25 09:32:39;;;;;;;11.00;8.80;;;;;;;20.17;86.62;101312.04;181667;1251;45030;-59
2023/09/25 09:36:52;;;;;;;10.00;7.80;;;;;;;20.24;89.16;101312.42;181632;1250;44962;-62
2023/09/25 09:40:57;;;;;;;12.00;10.30;;;;;;;20.42;89.60;101314.40;181765;1250;43819;-61
2023/09/25 09:45:02;;;;;;;10.70;9.60;;;;;;;20.56;87.82;101311.67;181575;1251;43519;-60
2023/09/25 09:49:13;;;;;;;14.90;9.90;;;;;;;20.60;86.95;101308.56;181712;1251;58476;-60
2023/09/25 09:53:20;;;;;;;11.60;8.60;;;;;;;20.67;87.75;101304.88;181453;1251;46040;-60
2023/09/25 09:57:24;;;;;;;10.60;8.30;;;;;;;20.79;87.88;101300.59;181558;1251;43586;-60
2023/09/25 10:01:36;;;;;;;9.40;7.60;;;;;;;20.91;86.35;101305.55;181430;1251;44710;-60
2023/09/25 10:06:07;;;;;;;14.20;9.70;;;;;;;20.97;89.19;101299.90;181434;1251;43727;-60
2023/09/25 10:10:11;;;;;;;8.40;7.50;;;;;;;20.97;89.28;101300.53;181517;1251;58488;-59
2023/09/25 10:14:22;;;;;;;9.90;8.30;;;;;;;20.99;88.85;101303.79;181468;1251;44977;-60
2023/09/25 10:18:43;;;;;;;8.10;7.10;;;;;;;21.07;89.33;101301.14;181524;1251;44487;-60
2023/09/25 10:22:47;;;;;;;9.50;8.50;;;;;;;21.29;88.88;101292.39;181409;1250;44718;-60
2023/09/25 10:26:51;;;;;;;6.10;5.50;;;;;;;21.49;87.56;101288.17;181438;1251;45961;-60
2023/09/25 10:31:01;;;;;;;6.30;5.50;;;;;;;21.58;87.04;101289.33;181450;1251;58020;-60
2023/09/25 10:35:40;;;;;;;9.00;5.90;;;;;;;21.60;88.95;101283.00;181379;1252;45820;-60
2023/09/25 10:40:08;;;;;;;8.60;6.50;;;;;;;21.87;87.17;101278.27;181398;1251;43573;-60
2023/09/25 10:44:17;;;;;;;8.20;6.40;;;;;;;21.97;87.54;101275.89;181488;1251;43622;-61
2023/09/25 10:48:24;;;;;;;7.60;5.10;;;;;;;22.13;86.93;101269.23;181439;1252;45926;-60
2023/09/25 10:52:30;;;;;;;7.00;4.60;;;;;;;22.29;85.46;101276.17;181568;1250;58188;-60
2023/09/25 10:56:35;;;;;;;;;;;;;;;22.32;84.94;101271.39;181473;1251;44633;-60
2023/09/25 11:00:50;;;;;;;8.20;6.00;;;;;;;22.41;86.40;101269.98;181599;1251;43397;-61
2023/09/25 11:04:57;;;;;;;5.00;4.50;;;;;;;22.56;83.44;101264.95;181649;1254;44598;-62
2023/09/25 11:09:04;;;;;;;7.90;5.30;;;;;;;22.59;83.20;101263.40;180989;1258;45964;-60
2023/09/25 11:13:09;;;;;;;7.10;5.70;;;;;;;22.60;82.41;101259.63;181187;1255;58401;-60
2023/09/25 11:17:14;;;;;;;5.30;4.80;;;;;;;22.64;82.84;101257.39;180981;1254;46083;-62
2023/09/25 11:21:17;;;;;;;4.60;4.20;;;;;;;22.64;82.37;101255.67;181234;1253;45964;-60
2023/09/25 11:25:20;;;;;;;7.50;5.30;;;;;;;22.53;83.74;101256.98;181088;1254;43613;-60
2023/09/25 11:29:30;;;;;;;8.50;4.80;;;;;;;22.39;85.38;101257.34;181135;1254;43560;-60
2023/09/25 11:33:34;;;;;;;7.60;5.50;;;;;;;22.33;83.96;101260.95;179256;1254;2321507;-59
2023/09/25 11:38:11;;;;;;;5.50;4.00;;;;;;;22.39;83.66;101253.59;181358;1253;45939;-60
2023/09/25 11:42:42;;;;;;;6.20;5.70;;;;;;;22.48;83.40;101244.77;181269;1253;43611;-60
2023/09/25 11:46:45;;;;;;;6.40;4.30;;;;;;;22.49;82.73;101242.14;180983;1254;43646;-60
2023/09/25 11:50:51;;;;;;;;;;;;;;;22.54;83.59;101245.55;181265;1254;45875;-60
2023/09/25 11:54:54;;;;;;;9.00;5.80;;;;;;;22.57;82.73;101246.79;181040;1254;57684;-60
2023/09/25 11:58:58;;;;;;;5.20;4.60;;;;;;;22.55;82.67;101242.68;181218;1254;43759;-60
2023/09/25 12:03:07;;;;;;;5.10;4.00;;;;;;;22.47;84.00;101242.15;181117;1254;43751;-61
2023/09/25 12:07:42;;;;;;;9.40;4.20;;;;;;;22.35;86.11;101241.05;181081;1254;46038;-60
2023/09/25 12:11:46;;;;;;;4.50;3.70;;;;;;;22.21;87.49;101236.64;181067;1254;44659;-61
2023/09/25 12:15:50;;;;;;;5.70;3.20;;;;;;;22.28;86.65;101232.55;180969;1258;58041;-60
2023/09/25 12:19:54;;;;;;;5.30;3.30;;;;;;;22.34;88.32;101229.73;180989;1253;45945;-62
2023/09/25 12:23:58;;;;;;;5.30;3.10;;;;;;;22.51;86.85;101232.22;181143;1254;44984;-61
2023/09/25 12:28:04;;;;;;;3.00;2.70;;;;;;;22.64;87.30;101226.81;181163;1254;45912;-60
2023/09/25 12:32:09;;;;;;;3.90;2.50;;;;;;;22.74;86.46;101228.15;181017;1255;45963;-61
2023/09/25 12:36:12;;;;;;;6.40;3.30;;;;;;;22.83;85.06;101228.17;181209;1254;58437;-60
2023/09/25 12:40:18;;;;;;;4.50;4.10;;;;;;;22.82;85.71;101229.36;181212;1256;43661;-60
2023/09/25 12:44:21;;;;;;;5.20;3.60;;;;;;;22.98;83.47;101228.27;181233;1254;43961;-60
2023/09/25 12:48:27;;;;;;;3.40;2.30;;;;;;;22.88;83.68;101225.75;181251;1254;43488;-60
2023/09/25 12:52:31;;;;;;;4.70;3.60;;;;;;;22.80;84.32;101221.48;181209;1254;45839;-61
2023/09/25 12:56:34;;;;;;;3.40;3.10;;;;;;;22.77;85.39;101221.85;181167;1253;58288;-60
2023/09/25 13:00:37;;;;;;;14.60;10.10;;;;;;;22.68;86.13;101225.46;181390;1254;43746;-61
2023/09/25 13:04:41;;;;;;;11.40;10.10;;;;;;;22.70;84.59;101225.08;181360;1254;43907;-61
2023/09/25 13:08:44;;;;;;;4.40;3.40;;;;;;;22.72;85.22;101223.15;181063;1254;46022;-60
2023/09/25 13:12:47;;;;;;;7.30;3.90;;;;;;;22.75;85.32;101221.06;181059;1257;46578;-60
2023/09/25 13:16:51;;;;;;;5.00;4.30;;;;;;;22.70;85.66;101224.19;180994;1254;58551;-61
2023/09/25 13:20:55;;;;;;;5.20;4.70;;;;;;;22.65;85.81;101219.87;181375;1253;43625;-61
2023/09/25 13:24:59;;;;;;;6.70;4.30;;;;;;;22.59;86.92;101224.27;181243;1254;44589;-62
2023/09/25 13:29:02;;;;;;;6.70;6.10;;;;;;;22.58;87.88;101221.02;181217;1257;46009;-62
2023/09/25 13:33:06;;;;;;;13.50;8.00;;;;;;;22.54;88.65;101221.67;181126;1252;44792;-62
2023/09/25 13:37:40;;;;;;;12.00;8.20;;;;;;;22.50;87.33;101221.28;181293;1256;58688;-62
2023/09/25 13:41:44;;;;;;;8.40;3.80;;;;;;;22.39;88.34;101219.77;181029;1254;43715;-62
2023/09/25 13:45:47;;;;;;;6.70;5.60;;;;;;;22.35;88.30;101219.70;181332;1254;45983;-61
2023/09/25 13:49:52;;;;;;;4.20;3.80;;;;;;;22.32;88.63;101220.02;181238;1254;43529;-61
2023/09/25 13:53:58;;;;;;;4.50;3.60;;;;;;;22.26;89.53;101214.38;180899;1253;44673;-62
2023/09/25 13:58:03;;;;;;;3.00;2.80;;;;;;;22.26;89.63;101208.30;181162;1253;57774;-61
2023/09/25 14:02:08;;;;;;;;;;;;;;;22.30;89.72;101206.86;181333;1253;46000;-62
2023/09/25 14:06:15;;;;;;;7.10;3.30;;;;;;;22.46;90.17;101208.39;181274;1254;43299;-63
2023/09/25 14:10:18;;;;;;;7.10;2.80;;;;;;;22.54;89.03;101210.34;181285;1254;43925;-61
2023/09/25 14:14:23;;;;;;;5.70;4.00;;;;;;;22.54;88.73;101213.71;181029;1254;46050;-63
2023/09/25 14:18:28;;;;;;;3.60;3.00;;;;;;;22.41;89.23;101208.63;181036;1254;60505;-61
2023/09/25 14:22:32;;;;;;;6.90;4.00;;;;;;;22.32;90.35;101209.89;180869;1257;43444;-60
2023/09/25 14:26:36;;;;;;;5.00;3.90;;;;;;;22.23;90.18;101209.02;180954;1254;43682;-60
2023/09/25 14:30:39;;;;;;;4.80;3.50;;;;;;;22.20;90.90;101213.92;181237;1256;46037;-61
2023/09/25 14:34:49;;;;;;;4.30;3.70;;;;;;;22.21;92.11;101209.27;181062;1254;43988;-62
2023/09/25 14:38:52;;;;;;;3.30;3.00;;;;;;;22.16;92.39;101211.69;181331;1254;58596;-62
2023/09/25 14:42:56;;;;;;;3.50;3.10;;;;;;;22.11;92.51;101211.83;181126;1253;45251;-62
2023/09/25 14:47:55;;;;;;;4.70;3.90;;;;;;;22.08;93.05;101208.05;181348;1254;43469;-62
2023/09/25 14:51:58;;;;;;;5.00;4.20;;;;;;;22.14;93.66;101203.95;181027;1253;43788;-62
2023/09/25 14:56:01;;;;;;;5.00;2.80;;;;;;;22.07;93.18;101198.86;181128;1254;43859;-63
2023/09/25 15:00:08;;;;;;;8.40;4.10;;;;;;;22.06;93.24;101197.80;181031;1254;58404;-64
2023/09/25 15:04:12;;;;;;;4.80;4.20;;;;;;;22.02;93.17;101194.27;180636;1254;45913;-64
2023/09/25 15:08:20;;;;;;;6.10;3.60;;;;;;;22.03;92.68;101191.59;181097;1254;43862;-64
2023/09/25 15:12:27;;;;;;;4.50;3.40;;;;;;;22.03;93.81;101187.15;180619;1253;46019;-64
2023/09/25 15:16:31;;;;;;;6.50;3.50;;;;;;;22.03;93.04;101186.27;181072;1254;43844;-64
2023/09/25 15:21:08;;;;;;;6.70;4.70;;;;;;;22.05;93.30;101189.27;180898;1254;58535;-64
2023/09/25 15:25:12;;;;;;;6.40;3.10;;;;;;;21.97;93.26;101180.89;180890;1253;43660;-63
2023/09/25 15:29:16;;;;;;;9.70;4.40;;;;;;;21.90;94.13;101171.29;180954;1254;44190;-64
2023/09/25 15:33:25;;;;;;;6.10;4.80;;;;;;;21.80;94.81;101173.00;180971;1254;43859;-64
2023/09/25 15:37:32;;;;;;;4.40;3.70;;;;;;;21.76;94.82;101177.36;180781;1253;46016;-64
2023/09/25 15:41:38;;;;;;;7.00;3.70;;;;;;;21.67;94.68;101173.89;180599;1254;58720;-62
2023/09/25 15:45:42;;;;;;;5.00;4.10;;;;;;;21.59;95.28;101170.48;180890;1254;43707;-64
2023/09/25 15:49:51;;;;;;;6.30;3.80;;;;;;;21.49;95.85;101167.23;181002;1253;43649;-64
2023/09/25 15:53:54;;;;;;;3.60;3.10;;;;;;;21.39;96.72;101164.25;180811;1254;44369;-63
2023/09/25 15:57:57;;;;;;;3.80;3.30;;;;;;;21.29;98.36;101168.96;180595;1255;45403;-63
2023/09/25 16:02:05;;;;;;;10.30;3.90;;;;;;;21.21;99.49;101167.85;181051;1254;58404;-62
2023/09/25 16:06:09;;;;;;;6.30;4.90;;;;;;;21.10;100.00;101170.22;180837;1254;45884;-65
2023/09/25 16:10:13;;;;;;;6.70;4.40;;;;;;;21.00;100.00;101165.62;180929;1254;45900;-64
2023/09/25 16:14:17;;;;;;;10.20;5.80;;;;;;;20.91;100.00;101165.98;180846;1254;44834;-64
2023/09/25 16:18:22;;;;;;;5.50;4.50;;;;;;;20.81;100.00;101161.02;180865;1254;44751;-63
2023/09/25 16:22:25;;;;;;;7.30;4.10;;;;;;;20.71;100.00;101161.36;180822;1254;58418;-65
2023/09/25 16:26:29;;;;;;;6.70;5.00;;;;;;;20.60;100.00;101160.59;180767;1253;43745;-64
2023/09/25 16:30:45;;;;;;;5.30;4.20;;;;;;;20.51;100.00;101159.64;180835;1252;43767;-63
2023/09/25 16:34:48;;;;;;;5.50;4.80;;;;;;;20.41;100.00;101158.34;180858;1254;43786;-64
2023/09/25 16:38:52;;;;;;;6.60;5.50;;;;;;;20.31;100.00;101155.50;180956;1254;46067;-63
2023/09/25 16:42:55;;;;;;;6.40;5.00;;;;;;;20.19;100.00;101158.58;181110;1253;58415;-64
2023/09/25 16:46:59;;;;;;;6.50;4.50;;;;;;;20.07;100.00;101157.69;181032;1253;43796;-62
2023/09/25 16:51:05;;;;;;;9.40;7.10;;;;;;;19.92;100.00;101158.80;180853;1254;44925;-63
2023/09/25 16:55:09;;;;;;;;;;;;;;;19.81;100.00;101152.56;181178;1253;46037;-63
2023/09/25 16:59:14;;;;;;;9.30;5.50;;;;;;;19.70;100.00;101155.69;181129;1254;44678;-62
2023/09/25 17:03:17;;;;;;;8.10;6.30;;;;;;;19.59;100.00;101168.86;180824;1254;58622;-63
2023/09/25 17:07:22;;;;;;;9.20;8.00;;;;;;;19.47;100.00;101173.27;181249;1252;44943;-61
2023/09/25 17:28:10;;;;;;;10.20;7.90;;;;;;;19.33;100.00;101174.16;176888;1284;580143;-63
2023/09/25 17:32:14;;;;;;;10.90;8.10;;;;;;;19.24;100.00;101172.15;178689;1263;219646;-84
2023/09/25 17:36:18;;;;;;;10.80;8.00;;;;;;;19.06;100.00;101183.27;180487;1263;46080;-84
2023/09/25 17:40:22;;;;;;;11.50;8.40;;;;;;;18.78;100.00;101181.77;180226;1258;46023;-84
2023/09/25 17:44:25;;;;;;;10.60;8.60;;;;;;;18.62;100.00;101180.34;179507;1259;44056;-85
2023/09/25 17:48:30;;;;;;;13.00;8.40;;;;;;;18.49;100.00;101184.73;179977;1259;46104;-84
2023/09/25 17:52:36;;;;;;;11.50;8.50;;;;;;;18.43;100.00;101183.17;180315;1259;59587;-84
2023/09/25 17:56:41;;;;;;;12.60;9.90;;;;;;;18.29;100.00;101182.16;179768;1259;46070;-85
2023/09/25 18:00:45;;;;;;;13.80;10.70;;;;;;;18.23;100.00;101185.30;179328;1258;46039;-85
2023/09/25 18:04:49;;;;;;;12.00;8.40;;;;;;;18.18;100.00;101188.14;179046;1258;45775;-84
2023/09/25 18:08:55;;;;;;;12.30;9.70;;;;;;;18.13;100.00;101187.73;179476;1260;45177;-85
2023/09/25 18:13:01;;;;;;;10.60;9.40;;;;;;;18.06;100.00;101190.05;180247;1259;58363;-84
2023/09/25 18:17:04;;;;;;;13.60;10.70;;;;;;;17.93;100.00;101191.14;179920;1260;45940;-83
2023/09/25 18:21:09;;;;;;;18.60;11.10;;;;;;;17.85;100.00;101188.85;179301;1259;46075;-83
2023/09/25 18:25:16;;;;;;;17.10;12.00;;;;;;;17.76;100.00;101185.91;178941;1259;44190;-84
2023/09/25 18:29:20;;;;;;;14.30;11.20;;;;;;;17.67;100.00;101186.23;179570;1259;44283;-84
2023/09/25 18:33:23;;;;;;;13.40;10.50;;;;;;;17.63;100.00;101187.27;179516;1259;59202;-85
2023/09/25 18:37:27;;;;;;;11.40;9.10;;;;;;;17.62;100.00;101185.89;180055;1259;45980;-84
2023/09/25 18:41:30;;;;;;;13.50;9.80;;;;;;;17.57;100.00;101186.20;179335;1259;45991;-84
2023/09/25 18:45:34;;;;;;;11.80;10.20;;;;;;;17.48;100.00;101183.44;179785;1261;46102;-84
2023/09/25 18:49:38;;;;;;;14.40;11.00;;;;;;;17.39;100.00;101182.89;179512;1259;45875;-84
2023/09/25 18:53:42;;;;;;;15.00;11.70;;;;;;;17.35;100.00;101183.30;179178;1259;59523;-84
2023/09/25 18:57:46;;;;;;;14.40;10.40;;;;;;;17.28;100.00;101183.73;179243;1262;46230;-85
2023/09/25 19:01:51;;;;;;;11.90;10.50;;;;;;;17.23;100.00;101185.67;179256;1259;46000;-84
2023/09/25 19:05:54;;;;;;;12.20;10.90;;;;;;;17.23;100.00;101187.59;178680;1258;45929;-84
2023/09/25 19:10:04;;;;;;;16.00;12.00;;;;;;;17.35;100.00;101190.25;178773;1259;45830;-85